Time;durP1;ratioP1;P1;durP2;ratioP2;P2;SDS_P1;SDS_P2;PMS_P1;PMS_P2;Temp;Humidity;BMP_temperature;BMP_pressure;BME280_temperature;BME280_humidity;BME280_pressure;Samples;Min_cycle;Max_cycle;Signal;HPM_P1;HPM_P2
2024/01/23 00:00:48;;;;;;;31.67;7.15;;;9.80;99.90;;;9.17;100.00;102574.31;4185536;28;20036;-68
2024/01/23 00:02:49;;;;;;;27.00;6.13;;;9.80;99.90;;;9.15;100.00;102581.44;4185381;28;20040;-68
2024/01/23 00:04:50;;;;;;;30.13;6.32;;;9.80;99.90;;;9.12;100.00;102576.38;4185429;28;20028;-68
2024/01/23 00:06:51;;;;;;;26.58;7.68;;;9.70;99.90;;;9.12;100.00;102569.31;4185209;28;20075;-68
2024/01/23 00:08:53;;;;;;;41.15;9.05;;;9.80;99.90;;;9.16;100.00;102583.13;4183959;28;20055;-68
2024/01/23 00:10:53;;;;;;;31.90;6.50;;;9.80;99.90;;;9.17;100.00;102574.31;4168745;28;20033;-68
2024/01/23 00:12:54;;;;;;;32.70;6.55;;;9.80;99.90;;;9.15;100.00;102577.03;4183924;28;20029;-68
2024/01/23 00:14:57;;;;;;;31.67;6.55;;;9.80;99.90;;;9.16;100.00;102567.34;4175035;28;20530;-68
2024/01/23 00:16:58;;;;;;;25.95;5.80;;;9.80;99.90;;;9.15;100.00;102574.38;4184089;28;20045;-68
2024/01/23 00:18:58;;;;;;;33.70;9.73;;;9.80;99.90;;;9.15;100.00;102573.53;4185172;28;20036;-68
2024/01/23 00:21:00;;;;;;;34.33;7.13;;;9.80;99.90;;;9.15;100.00;102570.91;4184927;28;20082;-68
2024/01/23 00:23:01;;;;;;;30.17;7.50;;;9.80;99.90;;;9.13;100.00;102573.66;4185065;28;20028;-68
2024/01/23 00:25:02;;;;;;;32.22;6.38;;;9.80;99.90;;;9.13;100.00;102575.44;4185218;28;20506;-68
2024/01/23 00:27:03;;;;;;;24.10;5.53;;;9.80;99.90;;;9.10;100.00;102573.00;4170979;28;20030;-68
2024/01/23 00:29:05;;;;;;;28.05;5.65;;;9.80;99.90;;;9.08;100.00;102570.47;4167471;28;20033;-68
2024/01/23 00:31:06;;;;;;;27.90;4.97;;;9.70;99.90;;;9.08;100.00;102573.09;4168694;28;20485;-68
2024/01/23 00:33:07;;;;;;;30.20;6.95;;;9.70;99.90;;;9.07;100.00;102568.81;4168817;28;20075;-68
2024/01/23 00:35:08;;;;;;;32.95;5.72;;;9.70;99.90;;;9.06;100.00;102572.38;4180565;28;20017;-68
2024/01/23 00:37:09;;;;;;;30.45;6.10;;;9.70;99.90;;;9.07;100.00;102575.84;4169466;28;20021;-68
2024/01/23 00:39:10;;;;;;;30.10;4.85;;;9.70;99.90;;;9.06;100.00;102566.25;4184148;28;20077;-68
2024/01/23 00:41:11;;;;;;;25.08;5.63;;;9.70;99.90;;;9.04;100.00;102573.41;4168796;28;20034;-68
2024/01/23 00:43:12;;;;;;;26.35;5.53;;;9.70;99.90;;;8.98;100.00;102564.13;4168535;28;20029;-68
2024/01/23 00:45:13;;;;;;;24.42;5.18;;;9.70;99.90;;;8.99;100.00;102576.34;4168405;28;20057;-68
2024/01/23 00:47:14;;;;;;;21.35;3.90;;;9.60;99.90;;;8.96;100.00;102573.91;4173326;28;20040;-68
2024/01/23 00:49:15;;;;;;;24.13;4.70;;;9.60;99.90;;;8.93;100.00;102574.09;4168557;28;20056;-68
2024/01/23 00:51:15;;;;;;;24.58;5.75;;;9.60;99.90;;;8.88;100.00;102576.22;4168584;28;20446;-68
2024/01/23 00:53:16;;;;;;;28.45;6.13;;;9.50;99.90;;;8.83;100.00;102573.88;4186451;28;20029;-68
2024/01/23 00:55:17;;;;;;;28.75;5.80;;;9.50;99.90;;;8.81;100.00;102586.28;4188441;28;20025;-68
2024/01/23 00:57:18;;;;;;;28.35;5.43;;;9.50;99.90;;;8.75;100.00;102578.78;4188427;28;20029;-68
2024/01/23 00:59:18;;;;;;;20.23;3.72;;;9.40;99.90;;;8.72;100.00;102578.97;4188085;28;20025;-68
2024/01/23 01:01:19;;;;;;;24.85;6.18;;;9.40;99.90;;;8.70;100.00;102575.63;4174781;28;20037;-67
2024/01/23 01:03:20;;;;;;;32.78;5.40;;;9.40;99.90;;;8.72;100.00;102578.97;4171712;28;20025;-68
2024/01/23 01:05:21;;;;;;;21.77;5.63;;;9.40;99.90;;;8.71;100.00;102577.31;4171471;28;20481;-67
2024/01/23 01:07:22;;;;;;;34.58;6.32;;;9.40;99.90;;;8.72;100.00;102573.72;4171588;28;20554;-68
2024/01/23 01:09:22;;;;;;;32.80;5.55;;;9.40;99.90;;;8.75;100.00;102586.69;4178340;28;20598;-67
2024/01/23 01:11:23;;;;;;;28.95;5.57;;;9.40;99.90;;;8.78;100.00;102586.47;4175710;28;20040;-68
2024/01/23 01:13:24;;;;;;;20.95;4.80;;;9.40;99.90;;;8.80;100.00;102583.75;4188028;28;20032;-67
2024/01/23 01:15:25;;;;;;;34.05;6.05;;;9.40;99.90;;;8.79;100.00;102576.81;4187953;28;20033;-68
2024/01/23 01:17:27;;;;;;;25.33;5.90;;;9.40;99.90;;;8.79;100.00;102576.81;4187800;28;20025;-67
2024/01/23 01:19:27;;;;;;;25.52;5.60;;;9.50;99.90;;;8.74;100.00;102577.13;4188166;28;20021;-68
2024/01/23 01:21:28;;;;;;;28.33;6.55;;;9.40;99.90;;;8.69;100.00;102573.91;4187719;28;20032;-68
2024/01/23 01:23:29;;;;;;;29.17;5.13;;;9.40;99.90;;;8.64;100.00;102578.66;4187727;28;20049;-68
2024/01/23 01:25:30;;;;;;;30.02;5.60;;;9.40;99.90;;;8.61;100.00;102572.72;4187705;28;20025;-68
2024/01/23 01:27:31;;;;;;;17.90;3.90;;;9.30;99.90;;;8.60;100.00;102579.78;4188052;28;20078;-68
2024/01/23 01:29:31;;;;;;;24.50;4.82;;;9.30;99.90;;;8.62;100.00;102583.16;4187876;28;20029;-68
2024/01/23 01:31:32;;;;;;;28.40;6.03;;;9.30;99.90;;;8.65;100.00;102590.88;4186596;28;20032;-67
2024/01/23 01:33:33;;;;;;;22.48;4.72;;;9.30;99.90;;;8.67;100.00;102590.75;4187846;28;20025;-68
2024/01/23 01:35:34;;;;;;;32.03;7.45;;;9.30;99.90;;;8.68;100.00;102590.66;4187366;28;20031;-68
2024/01/23 01:37:35;;;;;;;40.88;7.25;;;9.30;99.90;;;8.70;100.00;102598.44;4187831;28;20033;-68
2024/01/23 01:39:37;;;;;;;27.35;6.22;;;9.30;99.90;;;8.69;100.00;102594.16;4187620;28;20499;-67
2024/01/23 01:41:37;;;;;;;18.85;4.05;;;9.40;99.90;;;8.71;100.00;102601.00;4187521;28;20049;-67
2024/01/23 01:43:38;;;;;;;20.92;5.32;;;9.30;99.90;;;8.70;100.00;102590.56;4186152;28;20370;-68
2024/01/23 01:45:39;;;;;;;24.02;4.78;;;9.30;99.90;;;8.69;100.00;102594.16;4187551;28;20083;-68
2024/01/23 01:47:41;;;;;;;23.17;4.00;;;9.40;99.90;;;8.66;100.00;102589.09;4187482;28;20502;-67
2024/01/23 01:49:42;;;;;;;23.48;5.13;;;9.30;99.90;;;8.64;100.00;102590.94;4173796;28;20053;-68
2024/01/23 01:51:44;;;;;;;36.67;5.82;;;9.30;99.90;;;8.61;100.00;102599.88;4172338;28;20037;-68
2024/01/23 01:53:46;;;;;;;29.52;5.20;;;9.30;99.90;;;8.58;100.00;102601.84;4187540;28;20088;-67
2024/01/23 01:55:47;;;;;;;28.40;5.63;;;9.30;99.90;;;8.55;100.00;102608.16;4187378;28;20024;-68
2024/01/23 01:57:48;;;;;;;37.03;5.60;;;9.20;99.90;;;8.50;100.00;102601.50;4187254;28;20029;-67
2024/01/23 01:59:51;;;;;;;31.00;5.63;;;9.20;99.90;;;8.45;100.00;102609.72;4187243;28;20017;-68
2024/01/23 02:01:52;;;;;;;23.85;5.88;;;9.20;99.90;;;8.43;100.00;102611.56;4187598;28;20033;-68
2024/01/23 02:03:58;;;;;;;23.73;5.30;;;9.10;99.90;;;8.41;100.00;102602.09;4186622;28;20063;-68
2024/01/23 02:06:02;;;;;;;37.53;6.07;;;9.10;99.90;;;8.39;100.00;102601.34;4187007;28;20036;-67
2024/01/23 02:08:03;;;;;;;27.08;5.75;;;9.10;99.90;;;8.35;100.00;102611.22;4187075;28;20021;-67
2024/01/23 02:10:05;;;;;;;29.35;6.70;;;9.10;99.90;;;8.37;100.00;102621.63;4185785;28;20065;-67
2024/01/23 02:12:07;;;;;;;28.92;6.85;;;9.10;99.90;;;8.41;100.00;102620.50;4170588;28;20021;-67
2024/01/23 02:14:08;;;;;;;34.75;5.60;;;9.10;99.90;;;8.45;100.00;102625.50;4169233;28;20036;-68
2024/01/23 02:16:10;;;;;;;32.65;6.35;;;9.10;99.90;;;8.50;100.00;102626.03;4185789;28;20416;-68
2024/01/23 02:18:11;;;;;;;26.88;5.75;;;9.20;99.90;;;8.52;100.00;102629.41;4175635;28;20032;-68
2024/01/23 02:20:12;;;;;;;28.58;5.95;;;9.20;99.90;;;8.54;100.00;102629.31;4170373;28;20409;-68
2024/01/23 02:22:13;;;;;;;41.63;7.78;;;9.20;99.90;;;8.56;100.00;102643.22;4170478;28;20433;-67
2024/01/23 02:24:14;;;;;;;38.97;5.78;;;9.20;99.90;;;8.56;100.00;102640.56;4170218;28;20095;-68
2024/01/23 02:26:15;;;;;;;30.63;4.63;;;9.20;99.90;;;8.57;100.00;102643.09;4170642;28;20080;-67
2024/01/23 02:28:16;;;;;;;28.25;5.30;;;9.20;99.90;;;8.53;100.00;102638.16;4170400;28;20029;-68
2024/01/23 02:30:17;;;;;;;35.05;6.30;;;9.20;99.90;;;8.53;100.00;102636.38;4170234;28;20033;-67
2024/01/23 02:32:17;;;;;;;35.75;6.13;;;9.20;99.90;;;8.53;100.00;102644.25;4170153;28;20405;-67
2024/01/23 02:34:21;;;;;;;27.13;5.85;;;9.20;99.90;;;8.53;100.00;102641.63;4170384;28;20416;-68
2024/01/23 02:36:22;;;;;;;27.53;6.00;;;9.20;99.90;;;8.53;100.00;102646.88;4170108;28;20404;-67
2024/01/23 02:38:22;;;;;;;35.78;6.65;;;9.20;99.90;;;8.51;100.00;102654.00;4170194;28;20053;-67
2024/01/23 02:40:24;;;;;;;37.53;5.32;;;9.20;99.90;;;8.54;100.00;102650.38;4170683;28;20037;-67
2024/01/23 02:42:25;;;;;;;31.27;6.10;;;9.20;99.90;;;8.53;100.00;102646.88;4174239;28;20029;-68
2024/01/23 02:44:25;;;;;;;31.05;6.22;;;9.20;99.90;;;8.56;100.00;102643.22;4168853;28;20412;-68
2024/01/23 02:46:26;;;;;;;35.17;6.60;;;9.20;99.90;;;8.54;100.00;102634.59;4170044;28;20031;-68
2024/01/23 02:48:27;;;;;;;26.77;5.25;;;9.20;99.90;;;8.56;100.00;102645.84;4170067;28;20029;-68
2024/01/23 02:50:29;;;;;;;24.25;5.68;;;9.20;99.90;;;8.56;100.00;102633.53;4169766;28;20052;-67
2024/01/23 02:52:31;;;;;;;30.33;5.28;;;9.20;99.90;;;8.57;100.00;102645.72;4178391;28;20067;-68
2024/01/23 02:54:33;;;;;;;37.00;6.28;;;9.20;99.90;;;8.57;100.00;102637.84;4186422;28;20032;-67
2024/01/23 02:56:34;;;;;;;32.38;5.75;;;9.30;99.90;;;8.57;100.00;102645.72;4186246;28;20116;-67
2024/01/23 02:58:35;;;;;;;27.15;5.03;;;9.30;99.90;;;8.58;100.00;102649.22;4186351;28;20025;-68
2024/01/23 03:00:37;;;;;;;31.50;5.60;;;9.30;99.90;;;8.56;100.00;102646.69;4186368;28;20408;-68
2024/01/23 03:02:38;;;;;;;28.15;5.47;;;9.20;99.90;;;8.55;100.00;102649.41;4186253;28;20021;-68
2024/01/23 03:04:39;;;;;;;28.08;5.68;;;9.20;99.90;;;8.52;100.00;102641.69;4186183;28;20044;-67
2024/01/23 03:06:40;;;;;;;19.35;4.95;;;9.20;99.90;;;8.46;100.00;102637.69;4186007;28;20032;-68
2024/01/23 03:08:40;;;;;;;32.72;5.57;;;9.20;99.90;;;8.42;100.00;102637.97;4186185;28;20033;-67
2024/01/23 03:10:41;;;;;;;27.60;6.78;;;9.10;99.90;;;8.38;100.00;102634.69;4174919;28;20056;-68
2024/01/23 03:12:42;;;;;;;27.30;6.20;;;9.10;99.90;;;8.35;100.00;102629.63;4184082;28;20025;-67
2024/01/23 03:14:45;;;;;;;29.90;5.28;;;9.00;99.90;;;8.31;100.00;102644.75;4185530;28;20405;-67
2024/01/23 03:16:45;;;;;;;35.40;5.72;;;9.00;99.90;;;8.24;100.00;102639.94;4185811;28;20032;-67
2024/01/23 03:18:46;;;;;;;29.65;4.13;;;9.00;99.90;;;8.17;100.00;102643.88;4186022;28;20024;-68
2024/01/23 03:20:47;;;;;;;27.42;5.70;;;8.90;99.90;;;8.14;100.00;102644.06;4185637;28;20032;-68
2024/01/23 03:22:48;;;;;;;25.60;6.13;;;8.80;99.90;;;8.11;100.00;102641.63;4181690;28;20079;-68
2024/01/23 03:24:49;;;;;;;28.27;5.90;;;8.80;99.90;;;8.08;100.00;102641.81;4169694;28;20022;-68
2024/01/23 03:26:50;;;;;;;50.72;6.38;;;8.80;99.90;;;8.10;100.00;102647.81;4168187;28;20030;-67
2024/01/23 03:28:50;;;;;;;33.75;7.60;;;8.80;99.90;;;8.11;100.00;102655.59;4169270;28;20034;-67
2024/01/23 03:30:51;;;;;;;29.95;6.05;;;8.80;99.90;;;8.13;100.00;102651.09;4167912;28;20509;-68
2024/01/23 03:32:52;;;;;;;32.28;7.55;;;8.80;99.90;;;8.16;100.00;102657.94;4178524;28;20022;-68
2024/01/23 03:34:53;;;;;;;28.00;5.30;;;8.80;99.90;;;8.17;100.00;102659.66;4179393;28;20021;-68
2024/01/23 03:36:54;;;;;;;29.20;5.28;;;8.90;99.90;;;8.17;100.00;102660.50;4185091;28;20056;-68
2024/01/23 03:38:54;;;;;;;32.38;6.18;;;8.90;99.90;;;8.18;100.00;102650.81;4181101;28;20546;-67
2024/01/23 03:40:55;;;;;;;33.88;6.90;;;8.90;99.90;;;8.20;100.00;102662.09;4169680;28;20036;-68
2024/01/23 03:42:56;;;;;;;30.50;5.88;;;8.90;99.90;;;8.18;100.00;102656.91;4177243;28;20036;-68
2024/01/23 03:44:57;;;;;;;39.08;6.60;;;8.90;99.90;;;8.19;100.00;102642.84;4172491;28;20038;-68
2024/01/23 03:46:58;;;;;;;32.28;6.28;;;8.90;99.90;;;8.21;100.00;102640.94;4182562;28;20032;-68
2024/01/23 03:48:59;;;;;;;37.78;6.40;;;8.90;99.90;;;8.24;100.00;102647.81;4169283;28;20025;-68
2024/01/23 03:51:00;;;;;;;38.03;6.10;;;8.90;99.90;;;8.24;100.00;102656.53;4168928;28;20053;-68
2024/01/23 03:53:01;;;;;;;24.67;6.03;;;8.90;99.90;;;8.27;100.00;102663.41;4181653;28;20500;-68
2024/01/23 03:55:03;;;;;;;35.17;7.07;;;8.90;99.90;;;8.28;100.00;102652.81;4169547;28;20032;-68
2024/01/23 03:57:04;;;;;;;37.90;6.95;;;9.00;99.90;;;8.31;100.00;102650.00;4169074;28;20060;-68
2024/01/23 03:59:05;;;;;;;31.98;5.88;;;9.00;99.90;;;8.34;100.00;102651.59;4169237;28;20519;-68
2024/01/23 04:01:05;;;;;;;25.65;5.32;;;9.00;99.90;;;8.36;100.00;102644.47;4169018;28;20029;-68
2024/01/23 04:03:07;;;;;;;30.17;5.28;;;9.00;99.90;;;8.39;100.00;102646.91;4175789;28;20029;-67
2024/01/23 04:05:08;;;;;;;35.75;6.63;;;9.10;99.90;;;8.44;100.00;102654.50;4168801;28;20087;-68
2024/01/23 04:07:09;;;;;;;37.67;5.82;;;9.10;99.90;;;8.48;100.00;102654.22;4176332;28;20029;-67
2024/01/23 04:09:10;;;;;;;33.15;5.85;;;9.20;99.90;;;8.56;100.00;102645.84;4175168;28;20033;-67
2024/01/23 04:11:11;;;;;;;30.65;5.43;;;9.20;99.90;;;8.60;100.00;102637.66;4183970;28;20033;-67
2024/01/23 04:13:11;;;;;;;34.22;5.82;;;9.30;99.90;;;8.63;100.00;102634.81;4180248;28;20079;-68
2024/01/23 04:15:12;;;;;;;37.63;6.80;;;9.30;99.90;;;8.62;100.00;102620.00;4168812;28;20036;-67
2024/01/23 04:17:13;;;;;;;33.78;5.93;;;9.30;99.90;;;8.62;100.00;102637.56;4168747;28;20548;-67
2024/01/23 04:19:14;;;;;;;30.92;5.55;;;9.30;99.90;;;8.59;100.00;102641.22;4168678;28;20032;-67
2024/01/23 04:21:18;;;;;;;26.50;5.72;;;9.30;99.90;;;8.60;100.00;102648.16;4168489;28;20029;-67
2024/01/23 04:23:19;;;;;;;;;;;9.30;99.90;;;8.55;100.00;102642.34;4178192;28;20043;-68
2024/01/23 04:25:20;;;;;;;32.35;5.28;;;9.20;99.90;;;8.56;100.00;102643.22;4185201;28;19908;-67
2024/01/23 04:27:20;;;;;;;23.85;4.88;;;9.20;99.90;;;8.52;100.00;102652.22;4184770;28;20040;-68
2024/01/23 04:29:21;;;;;;;38.80;5.80;;;9.20;99.90;;;8.51;100.00;102654.00;4185226;28;20511;-68
2024/01/23 04:31:22;;;;;;;31.48;6.35;;;9.20;99.90;;;8.53;100.00;102641.63;4185108;28;20389;-68
2024/01/23 04:33:25;;;;;;;32.67;7.38;;;9.20;99.90;;;8.53;100.00;102646.03;4183938;28;20067;-67
2024/01/23 04:35:27;;;;;;;38.28;6.97;;;9.20;99.90;;;8.54;100.00;102640.66;4170189;28;20033;-68
2024/01/23 04:37:28;;;;;;;37.88;6.38;;;9.20;99.90;;;8.55;100.00;102639.72;4168573;28;20072;-67
2024/01/23 04:39:29;;;;;;;43.15;6.32;;;9.20;99.90;;;8.57;100.00;102637.84;4168621;28;20028;-67
2024/01/23 04:41:30;;;;;;;32.55;6.53;;;9.20;99.90;;;8.58;100.00;102652.69;4174633;28;20021;-68
2024/01/23 04:43:31;;;;;;;33.40;6.38;;;9.20;99.90;;;8.62;100.00;102648.09;4183573;28;20118;-68
2024/01/23 04:45:32;;;;;;;40.78;7.97;;;9.30;99.90;;;8.63;100.00;102647.97;4168775;28;20026;-67
2024/01/23 04:47:33;;;;;;;34.25;6.68;;;9.30;99.90;;;8.69;100.00;102647.59;4168598;28;20492;-67
2024/01/23 04:49:34;;;;;;;26.90;4.43;;;9.30;99.90;;;8.71;100.00;102640.47;4168538;28;20493;-68
2024/01/23 04:51:35;;;;;;;34.40;6.68;;;9.30;99.90;;;8.78;100.00;102644.38;4168894;28;20022;-68
2024/01/23 04:53:35;;;;;;;35.20;8.18;;;9.40;99.90;;;8.80;100.00;102649.56;4180862;28;20025;-67
2024/01/23 04:55:36;;;;;;;42.95;6.45;;;9.40;99.90;;;8.82;100.00;102648.50;4168558;28;20026;-67
2024/01/23 04:57:37;;;;;;;37.13;5.65;;;9.40;99.90;;;8.85;100.00;102648.31;4168531;28;20026;-68
2024/01/23 04:59:38;;;;;;;39.28;5.40;;;9.50;99.90;;;8.86;100.00;102650.00;4168320;28;20396;-68
2024/01/23 05:01:40;;;;;;;37.13;6.65;;;9.50;99.90;;;8.90;100.00;102656.75;4168187;28;20057;-68
2024/01/23 05:03:41;;;;;;;24.73;4.72;;;9.50;99.90;;;8.93;100.00;102649.63;4173871;28;20033;-67
2024/01/23 05:05:42;;;;;;;37.22;5.97;;;9.50;99.90;;;8.95;100.00;102642.44;4168159;28;20025;-67
2024/01/23 05:07:42;;;;;;;49.38;7.25;;;9.60;99.90;;;8.96;100.00;102638.88;4166988;28;20034;-67
2024/01/23 05:09:43;;;;;;;37.65;6.18;;;9.60;99.90;;;8.98;100.00;102637.00;4175877;28;20029;-68
2024/01/23 05:11:44;;;;;;;41.53;7.18;;;9.60;99.90;;;8.98;100.00;102626.47;4174729;28;20481;-68
2024/01/23 05:13:45;;;;;;;35.28;6.45;;;9.60;99.90;;;8.99;100.00;102630.78;4175069;28;20024;-67
2024/01/23 05:15:46;;;;;;;36.45;6.07;;;9.60;99.90;;;9.00;100.00;102638.56;4168222;28;20481;-68
2024/01/23 05:17:47;;;;;;;39.92;5.47;;;9.70;99.90;;;9.02;100.00;102638.50;4168345;28;20524;-68
2024/01/23 05:19:48;;;;;;;35.17;6.78;;;9.70;99.90;;;9.01;100.00;102634.16;4168374;28;20025;-68
2024/01/23 05:21:48;;;;;;;32.80;6.20;;;9.60;99.90;;;9.01;100.00;102629.75;4168038;28;20025;-67
2024/01/23 05:23:49;;;;;;;40.17;7.47;;;9.60;99.90;;;9.01;100.00;102634.16;4169071;28;20524;-67
2024/01/23 05:25:50;;;;;;;36.38;6.35;;;9.70;99.90;;;8.99;100.00;102630.78;4168231;28;20045;-68
2024/01/23 05:27:51;;;;;;;38.65;5.60;;;9.60;99.90;;;8.97;100.00;102624.75;4168479;28;20032;-67
2024/01/23 05:29:52;;;;;;;27.15;5.50;;;9.60;99.90;;;8.96;100.00;102633.63;4168281;28;20018;-67
2024/01/23 05:31:53;;;;;;;32.88;6.65;;;9.60;99.90;;;8.97;100.00;102637.94;4180337;28;20032;-67
2024/01/23 05:33:54;;;;;;;42.00;6.68;;;9.60;99.90;;;8.98;100.00;102637.00;4182394;28;20040;-67
2024/01/23 05:35:54;;;;;;;28.80;5.75;;;9.60;99.90;;;9.02;100.00;102649.03;4171550;28;20059;-68
2024/01/23 05:37:55;;;;;;;37.97;5.80;;;9.60;99.90;;;9.04;100.00;102655.88;4168356;28;20022;-68
2024/01/23 05:39:56;;;;;;;39.42;8.70;;;9.70;99.90;;;9.04;100.00;102652.38;4176263;28;20033;-67
2024/01/23 05:41:57;;;;;;;35.25;5.45;;;9.70;99.90;;;9.05;100.00;102646.19;4174233;28;20022;-67
2024/01/23 05:43:58;;;;;;;33.90;5.80;;;9.70;99.90;;;9.08;100.00;102633.66;4183613;28;20021;-68
2024/01/23 05:45:58;;;;;;;40.33;5.97;;;9.70;99.90;;;9.05;100.00;102643.56;4176802;28;20025;-68
2024/01/23 05:47:59;;;;;;;30.55;5.47;;;9.70;99.90;;;9.06;100.00;102638.19;4171324;28;20032;-67
2024/01/23 05:50:01;;;;;;;39.55;6.93;;;9.70;99.90;;;9.09;100.00;102642.41;4182655;28;20032;-67
2024/01/23 05:52:02;;;;;;;32.88;4.60;;;9.70;99.90;;;9.10;100.00;102650.22;4176074;28;20021;-68
2024/01/23 05:54:03;;;;;;;28.40;5.40;;;9.70;99.90;;;9.14;100.00;102656.13;4179335;28;20021;-67
2024/01/23 05:56:04;;;;;;;31.25;5.40;;;9.70;99.90;;;9.14;100.00;102654.31;4170879;28;20107;-67
2024/01/23 05:58:05;;;;;;;36.35;5.85;;;9.80;99.90;;;9.16;100.00;102662.97;4170733;28;20490;-68
2024/01/23 06:00:13;;;;;;;32.90;5.53;;;9.80;99.90;;;9.18;100.00;102660.22;4171036;28;20397;-67
2024/01/23 06:02:14;;;;;;;33.05;5.88;;;9.80;99.90;;;9.18;100.00;102661.06;4170907;28;20044;-68
2024/01/23 06:04:15;;;;;;;31.27;6.35;;;9.80;99.90;;;9.21;100.00;102660.88;4181608;28;20045;-68
2024/01/23 06:06:18;;;;;;;41.42;7.20;;;9.80;99.90;;;9.22;100.00;102664.34;4186852;28;20396;-68
2024/01/23 06:08:19;;;;;;;30.50;5.38;;;9.90;99.90;;;9.24;100.00;102665.94;4187325;28;20025;-68
2024/01/23 06:10:20;;;;;;;29.92;4.72;;;9.90;99.90;;;9.26;100.00;102660.56;4177922;28;20091;-68
2024/01/23 06:12:21;;;;;;;40.47;6.65;;;9.90;99.90;;;9.27;100.00;102664.88;4182910;28;20029;-68
2024/01/23 06:14:22;;;;;;;38.58;5.57;;;9.90;99.90;;;9.28;100.00;102658.69;4171593;28;20036;-68
2024/01/23 06:16:23;;;;;;;30.42;6.65;;;9.90;99.90;;;9.27;100.00;102667.53;4170928;28;20032;-68
2024/01/23 06:18:24;;;;;;;32.78;5.95;;;9.90;99.90;;;9.29;100.00;102665.63;4170634;28;20018;-68
2024/01/23 06:20:25;;;;;;;31.27;5.28;;;9.90;99.90;;;9.30;100.00;102662.06;4170281;28;20025;-68
2024/01/23 06:22:27;;;;;;;34.35;5.93;;;9.90;99.90;;;9.32;100.00;102670.69;4171791;28;20105;-68
2024/01/23 06:24:28;;;;;;;30.75;5.47;;;9.90;99.90;;;9.30;100.00;102678.72;4182011;28;20528;-68
2024/01/23 06:26:28;;;;;;;31.83;5.28;;;9.90;99.90;;;9.29;100.00;102671.75;4170577;28;20037;-68
2024/01/23 06:28:29;;;;;;;30.08;6.68;;;9.90;99.90;;;9.31;100.00;102679.56;4170495;28;20075;-67
2024/01/23 06:30:30;;;;;;;25.52;5.22;;;9.90;99.90;;;9.31;100.00;102682.19;4170146;28;20034;-68
2024/01/23 06:32:32;;;;;;;27.35;5.70;;;9.90;99.90;;;9.32;100.00;102668.91;4172132;28;20507;-67
2024/01/23 06:34:33;;;;;;;35.90;6.93;;;10.00;99.90;;;9.33;100.00;102652.16;4179154;28;20026;-68
2024/01/23 06:36:37;;;;;;;32.95;6.00;;;10.00;99.90;;;9.32;100.00;102655.75;4170238;28;20036;-68
2024/01/23 06:38:38;;;;;;;36.20;5.05;;;10.00;99.90;;;9.35;100.00;102667.84;4170543;28;20033;-68
2024/01/23 06:40:39;;;;;;;44.53;5.55;;;10.00;99.90;;;9.37;100.00;102663.34;4170266;28;20439;-68
2024/01/23 06:42:40;;;;;;;35.60;4.63;;;10.00;99.90;;;9.37;100.00;102665.97;4173110;28;20087;-68
2024/01/23 06:44:41;;;;;;;40.28;7.13;;;10.00;99.90;;;9.39;100.00;102664.94;4175546;28;20029;-68
2024/01/23 06:46:41;;;;;;;32.42;6.43;;;10.00;99.90;;;9.39;100.00;102672.00;4168744;28;20034;-68
2024/01/23 06:48:42;;;;;;;36.80;6.95;;;10.00;99.90;;;9.40;100.00;102673.69;4177435;28;20021;-68
2024/01/23 06:50:44;;;;;;;35.20;5.43;;;10.00;99.90;;;9.42;100.00;102674.41;4184499;28;20033;-68
2024/01/23 06:52:45;;;;;;;37.38;6.82;;;10.10;99.90;;;9.46;100.00;102673.28;4180355;28;20009;-68
2024/01/23 06:54:46;;;;;;;45.55;5.93;;;10.10;99.90;;;9.48;100.00;102674.00;4172932;28;20034;-68
2024/01/23 06:56:46;;;;;;;32.42;5.50;;;10.10;99.90;;;9.52;100.00;102677.28;4170051;28;20072;-68
2024/01/23 06:58:47;;;;;;;30.92;5.75;;;10.10;99.90;;;9.53;100.00;102663.19;4170221;28;20026;-68
2024/01/23 07:00:48;;;;;;;36.28;5.72;;;10.20;99.90;;;9.54;100.00;102652.53;4169996;28;20057;-69
2024/01/23 07:02:49;;;;;;;36.88;7.10;;;10.20;99.90;;;9.56;100.00;102645.34;4181702;28;20075;-67
2024/01/23 07:04:50;;;;;;;32.55;5.30;;;10.20;99.90;;;9.56;100.00;102658.53;4169790;28;20407;-68
2024/01/23 07:06:51;;;;;;;32.80;5.88;;;10.20;99.90;;;9.58;100.00;102651.38;4169725;28;20045;-68
2024/01/23 07:08:53;;;;;;;30.17;6.25;;;10.20;99.90;;;9.60;100.00;102640.72;4173515;28;20025;-68
2024/01/23 07:10:54;;;;;;;38.15;4.80;;;10.20;99.90;;;9.62;100.00;102631.78;4173563;28;20124;-68
2024/01/23 07:12:55;;;;;;;38.03;7.22;;;10.20;99.90;;;9.66;100.00;102646.44;4182341;28;20043;-68
2024/01/23 07:14:56;;;;;;;41.28;7.38;;;10.20;99.90;;;9.67;100.00;102642.88;4186950;28;20029;-68
2024/01/23 07:16:57;;;;;;;28.02;5.80;;;10.30;99.90;;;9.68;100.00;102647.16;4182302;28;20048;-68
2024/01/23 07:18:58;;;;;;;34.83;7.13;;;10.30;99.90;;;9.68;100.00;102655.06;4179560;28;20559;-68
2024/01/23 07:20:59;;;;;;;33.60;5.78;;;10.30;99.90;;;9.71;100.00;102656.66;4170320;28;20467;-67
2024/01/23 07:23:00;;;;;;;28.35;5.32;;;10.30;99.90;;;9.68;100.00;102647.16;4167321;28;20030;-68
2024/01/23 07:25:03;;;;;;;49.30;6.60;;;10.30;99.90;;;9.66;100.00;102641.16;4167402;28;20045;-68
2024/01/23 07:27:04;;;;;;;40.58;7.35;;;10.30;99.90;;;9.65;100.00;102628.94;4178865;28;20064;-68
2024/01/23 07:29:05;;;;;;;41.90;6.03;;;10.30;99.90;;;9.65;100.00;102617.53;4167886;28;20030;-67
2024/01/23 07:31:06;;;;;;;38.30;6.97;;;10.30;99.90;;;9.70;100.00;102628.63;4173042;28;20045;-68
2024/01/23 07:33:09;;;;;;;37.80;5.45;;;10.30;99.90;;;9.68;100.00;102635.78;4169265;28;20029;-68
2024/01/23 07:35:11;;;;;;;30.08;4.85;;;10.30;99.90;;;9.65;100.00;102633.34;4169128;28;20037;-67
2024/01/23 07:37:12;;;;;;;35.72;6.22;;;10.20;99.90;;;9.65;100.00;102628.06;4169267;28;21425;-68
2024/01/23 07:39:13;;;;;;;29.77;4.47;;;10.30;99.90;;;9.60;100.00;102630.19;4169389;28;20029;-68
2024/01/23 07:41:14;;;;;;;39.75;8.05;;;10.20;99.90;;;9.65;100.00;102628.94;4169344;28;20029;-68
2024/01/23 07:43:16;;;;;;;41.58;7.68;;;10.20;99.90;;;9.63;100.00;102636.09;4169178;28;20493;-68
2024/01/23 07:45:17;;;;;;;42.60;6.22;;;10.20;99.90;;;9.64;100.00;102629.91;4183771;28;20024;-68
2024/01/23 07:47:18;;;;;;;38.63;7.43;;;10.20;99.90;;;9.71;100.00;102619.75;4169253;28;20036;-68
2024/01/23 07:49:19;;;;;;;40.63;7.43;;;10.30;99.90;;;9.72;100.00;102622.31;4177047;28;20504;-68
2024/01/23 07:51:20;;;;;;;42.13;7.15;;;10.30;99.90;;;9.75;100.00;102614.19;4172763;28;20032;-68
2024/01/23 07:53:21;;;;;;;44.00;7.18;;;10.30;99.90;;;9.74;100.00;102620.41;4185234;28;20098;-67
2024/01/23 07:55:24;;;;;;;55.47;8.20;;;10.30;99.90;;;9.74;100.00;102607.22;4185627;28;20029;-67
2024/01/23 07:57:24;;;;;;;31.58;7.13;;;10.30;99.90;;;9.76;100.00;102592.16;4185667;28;20021;-68
2024/01/23 07:59:25;;;;;;;36.30;5.55;;;10.30;99.90;;;9.74;100.00;102572.13;4185186;28;20032;-68
2024/01/23 08:01:26;;;;;;;38.83;6.95;;;10.40;99.90;;;9.77;100.00;102574.53;4179228;28;20029;-68
2024/01/23 08:03:27;;;;;;;30.90;6.65;;;10.40;99.90;;;9.75;100.00;102584.34;4169877;28;20481;-67
2024/01/23 08:05:29;;;;;;;35.45;7.38;;;10.40;99.90;;;9.78;100.00;102584.13;4167423;28;20509;-67
2024/01/23 08:07:29;;;;;;;54.95;6.82;;;10.40;99.90;;;9.75;100.00;102572.03;4168878;28;20041;-67
2024/01/23 08:09:30;;;;;;;29.48;5.47;;;10.40;99.90;;;9.79;100.00;102570.03;4182453;28;20025;-67
2024/01/23 08:11:32;;;;;;;34.22;6.03;;;10.40;99.90;;;9.80;100.00;102579.59;4173116;28;20064;-67
2024/01/23 08:13:32;;;;;;;42.67;8.43;;;10.40;99.90;;;9.82;100.00;102572.44;4168824;28;20033;-67
2024/01/23 08:15:34;;;;;;;38.75;7.07;;;10.40;99.90;;;9.84;100.00;102574.03;4170568;28;20032;-67
2024/01/23 08:17:35;;;;;;;46.92;6.90;;;10.50;99.90;;;9.87;100.00;102602.81;4183788;28;20048;-67
2024/01/23 08:19:39;;;;;;;35.22;5.75;;;10.50;99.90;;;9.89;100.00;102605.31;4168845;28;20439;-67
2024/01/23 08:21:40;;;;;;;43.60;8.27;;;10.50;99.90;;;9.92;100.00;102602.47;4170560;28;20022;-67